createdAt,value
2019-05-12T00:01:53.456Z,88.40
2019-05-12T00:04:24.735Z,88.20
2019-05-12T00:06:58.974Z,87.80
2019-05-12T00:09:31.267Z,87.90
2019-05-12T00:12:08.130Z,87.60
2019-05-12T00:14:38.638Z,87.60
2019-05-12T00:17:10.873Z,88.00
2019-05-12T00:19:43.009Z,87.70
2019-05-12T00:22:19.216Z,87.60
2019-05-12T00:24:49.498Z,87.60
2019-05-12T00:27:23.163Z,87.50
2019-05-12T00:29:57.849Z,87.20
2019-05-12T00:32:30.176Z,86.90
2019-05-12T00:35:01.138Z,86.60
2019-05-12T00:37:32.480Z,86.60
2019-05-12T00:40:04.621Z,86.40
2019-05-12T00:42:38.154Z,86.30
2019-05-12T00:45:10.247Z,86.20
2019-05-12T00:47:42.561Z,85.60
2019-05-12T00:50:18.451Z,85.70
2019-05-12T00:52:52.068Z,85.50
2019-05-12T00:55:31.092Z,85.20
2019-05-12T00:58:03.624Z,85.20
2019-05-12T01:00:40.566Z,84.60
2019-05-12T01:03:11.327Z,84.40
2019-05-12T01:05:43.635Z,84.40
2019-05-12T01:08:18.802Z,84.40
2019-05-12T01:10:53.035Z,84.00
2019-05-12T01:13:27.770Z,83.90
2019-05-12T01:15:58.829Z,83.70
2019-05-12T01:18:32.478Z,83.30
2019-05-12T01:21:07.823Z,83.00
2019-05-12T01:23:53.647Z,82.90
2019-05-12T01:26:17.716Z,82.60
2019-05-12T01:28:49.553Z,82.60
2019-05-12T01:31:24.748Z,82.60
2019-05-12T01:33:58.442Z,82.20
2019-05-12T01:36:31.521Z,82.40
2019-05-12T01:39:04.140Z,82.20
2019-05-12T01:41:38.749Z,82.10
2019-05-12T01:44:10.301Z,81.90
2019-05-12T01:46:44.014Z,81.80
2019-05-12T01:49:18.481Z,81.40
2019-05-12T01:51:49.693Z,81.00
2019-05-12T01:54:23.704Z,80.50
2019-05-12T01:56:54.711Z,80.40
2019-05-12T01:59:28.678Z,80.00
2019-05-12T02:02:00.195Z,80.00
2019-05-12T02:04:33.737Z,79.80
2019-05-12T02:07:08.231Z,80.40
2019-05-12T02:09:39.630Z,78.90
2019-05-12T02:12:13.738Z,77.70
2019-05-12T02:14:48.531Z,77.50
2019-05-12T02:17:20.144Z,77.60
2019-05-12T02:19:52.001Z,76.70
2019-05-12T02:22:24.391Z,75.40
2019-05-12T02:24:55.571Z,76.00
2019-05-12T02:27:28.397Z,75.60
2019-05-12T02:30:01.181Z,75.20
2019-05-12T02:32:47.825Z,74.70
2019-05-12T02:35:08.067Z,74.40
2019-05-12T02:37:45.217Z,73.60
2019-05-12T02:40:17.375Z,73.30
2019-05-12T02:42:54.559Z,71.50
2019-05-12T02:45:25.737Z,72.10
2019-05-12T02:47:58.102Z,70.40
2019-05-12T02:50:35.234Z,70.30
2019-05-12T02:53:06.094Z,70.00
2019-05-12T02:55:38.677Z,69.20
2019-05-12T02:58:15.271Z,68.20
2019-05-12T03:00:47.508Z,67.50
2019-05-12T03:03:19.275Z,67.00
2019-05-12T03:05:54.688Z,67.30
2019-05-12T03:08:28.099Z,66.00
2019-05-12T03:11:00.575Z,64.40
2019-05-12T03:13:34.401Z,64.50
2019-05-12T03:16:05.230Z,65.30
2019-05-12T03:18:37.402Z,64.30
2019-05-12T03:21:08.475Z,64.20
2019-05-12T03:23:44.261Z,64.40
2019-05-12T03:26:19.719Z,63.90
2019-05-12T03:28:55.617Z,63.70
2019-05-12T03:31:31.215Z,63.50
2019-05-12T03:34:08.236Z,63.40
2019-05-12T03:36:51.082Z,63.40
2019-05-12T03:39:24.955Z,63.50
2019-05-12T03:41:55.887Z,63.00
2019-05-12T03:44:28.182Z,63.30
2019-05-12T03:47:00.488Z,62.90
2019-05-12T03:49:35.272Z,62.10
2019-05-12T03:52:07.367Z,62.50
2019-05-12T03:54:39.954Z,61.90
2019-05-12T03:57:14.769Z,61.80
2019-05-12T03:59:45.442Z,61.90
2019-05-12T04:02:25.165Z,62.60
2019-05-12T04:04:57.958Z,62.60
2019-05-12T04:07:29.217Z,59.80
2019-05-12T04:10:01.274Z,59.90
2019-05-12T04:12:34.581Z,60.80
2019-05-12T04:15:08.810Z,60.80
2019-05-12T04:17:39.787Z,61.40
2019-05-12T04:20:14.927Z,61.10
2019-05-12T04:22:48.376Z,60.40
2019-05-12T04:25:24.995Z,60.90
2019-05-12T04:27:55.637Z,61.70
2019-05-12T04:30:35.431Z,62.40
2019-05-12T04:33:06.870Z,63.20
2019-05-12T04:35:38.857Z,63.80
2019-05-12T04:38:14.668Z,63.70
2019-05-12T04:40:45.415Z,64.80
2019-05-12T04:43:20.224Z,65.40
2019-05-12T04:45:57.484Z,63.90
2019-05-12T04:48:35.340Z,64.30
2019-05-12T04:51:09.684Z,64.00
2019-05-12T04:53:44.993Z,63.40
2019-05-12T04:56:20.536Z,64.20
2019-05-12T04:58:54.257Z,63.40
2019-05-12T05:01:25.384Z,62.50
2019-05-12T05:03:57.931Z,62.60
2019-05-12T05:06:34.168Z,62.40
2019-05-12T05:09:09.181Z,62.30
2019-05-12T05:11:44.360Z,62.30
2019-05-12T05:14:15.144Z,62.00
2019-05-12T05:16:46.327Z,62.00
2019-05-12T05:19:17.429Z,60.70
2019-05-12T05:21:48.515Z,60.90
2019-05-12T05:24:19.698Z,59.70
2019-05-12T05:26:53.775Z,59.20
2019-05-12T05:29:25.579Z,59.80
2019-05-12T05:31:56.703Z,58.70
2019-05-12T05:34:31.107Z,59.60
2019-05-12T05:37:05.045Z,58.00
2019-05-12T05:39:48.026Z,58.10
2019-05-12T05:42:08.361Z,58.50
2019-05-12T05:44:40.344Z,57.10
2019-05-12T05:47:13.849Z,56.10
2019-05-12T05:49:46.110Z,55.20
2019-05-12T05:52:18.495Z,54.60
2019-05-12T05:54:50.302Z,55.00
2019-05-12T05:57:27.771Z,55.70
2019-05-12T05:59:57.045Z,55.10
2019-05-12T06:02:31.960Z,55.70
2019-05-12T06:05:04.401Z,56.60
2019-05-12T06:07:39.073Z,55.60
2019-05-12T06:10:59.576Z,55.10
2019-05-12T06:13:27.341Z,54.90
2019-05-12T06:15:56.244Z,54.80
2019-05-12T06:21:33.884Z,54.30
2019-05-12T06:24:23.781Z,54.20
2019-05-12T06:27:00.506Z,53.40
2019-05-12T06:29:39.374Z,53.80
2019-05-12T06:32:14.155Z,54.10
2019-05-12T06:34:50.788Z,53.50
2019-05-12T06:37:26.077Z,54.90
2019-05-12T06:40:00.549Z,54.70
2019-05-12T06:42:34.574Z,55.20
2019-05-12T06:45:08.163Z,55.70
2019-05-12T06:47:45.421Z,54.20
2019-05-12T06:50:17.757Z,52.60
2019-05-12T06:52:52.756Z,52.40
2019-05-12T06:55:28.529Z,52.90
2019-05-12T06:57:58.453Z,51.00
2019-05-12T07:00:32.645Z,51.10
2019-05-12T07:03:04.507Z,51.20
2019-05-12T07:05:38.571Z,50.80
2019-05-12T07:08:10.995Z,51.70
2019-05-12T07:10:46.057Z,51.80
2019-05-12T07:13:23.256Z,52.40
2019-05-12T07:15:50.961Z,51.90
2019-05-12T07:18:32.207Z,51.60
2019-05-12T07:21:20.236Z,49.20
2019-05-12T07:23:53.502Z,49.80
2019-05-12T07:26:27.146Z,48.90
2019-05-12T07:28:59.297Z,49.30
2019-05-12T07:31:34.423Z,49.00
2019-05-12T07:34:08.005Z,49.00
2019-05-12T07:39:45.346Z,48.50
2019-05-12T07:42:13.391Z,46.40
2019-05-12T07:44:48.403Z,46.70
2019-05-12T07:47:24.605Z,46.70
2019-05-12T07:49:53.753Z,47.60
2019-05-12T07:52:25.993Z,48.00
2019-05-12T07:54:58.191Z,47.30
2019-05-12T07:57:30.365Z,47.00
2019-05-12T08:00:03.637Z,47.00
2019-05-12T08:02:35.681Z,46.90
2019-05-12T08:05:16.797Z,47.40
2019-05-12T08:07:50.071Z,47.80
2019-05-12T08:10:20.361Z,48.10
2019-05-12T08:12:58.902Z,47.90
2019-05-12T08:15:25.887Z,47.10
2019-05-12T08:17:59.640Z,47.60
2019-05-12T08:20:34.064Z,47.50
2019-05-12T08:23:10.141Z,47.70
2019-05-12T08:25:39.516Z,47.60
2019-05-12T08:28:15.337Z,48.50
2019-05-12T08:30:47.428Z,48.50
2019-05-12T08:33:17.524Z,48.30
2019-05-12T08:35:49.453Z,48.70
2019-05-12T08:38:21.714Z,49.40
2019-05-12T08:40:54.243Z,47.70
2019-05-12T08:43:28.146Z,48.10
2019-05-12T08:46:05.980Z,48.70
2019-05-12T08:48:34.365Z,47.80
2019-05-12T08:51:13.998Z,48.10
2019-05-12T08:53:39.865Z,48.10
2019-05-12T08:56:19.455Z,48.80
2019-05-12T08:58:51.277Z,49.30
2019-05-12T09:01:27.981Z,50.00
2019-05-12T09:04:00.343Z,48.50
2019-05-12T09:06:29.634Z,48.80
2019-05-12T09:09:03.369Z,49.00
2019-05-12T09:11:35.068Z,49.10
2019-05-12T09:14:07.269Z,48.90
2019-05-12T09:16:39.536Z,49.10
2019-05-12T09:19:16.649Z,49.40
2019-05-12T09:21:44.442Z,49.70
2019-05-12T09:24:21.847Z,50.20
2019-05-12T09:26:50.485Z,50.10
2019-05-12T09:29:22.518Z,50.00
2019-05-12T09:31:53.557Z,50.20
2019-05-12T09:34:25.863Z,50.00
2019-05-12T09:36:59.626Z,50.60
2019-05-12T09:39:34.183Z,51.00
2019-05-12T09:42:04.633Z,51.10
2019-05-12T09:44:35.863Z,51.90
2019-05-12T09:47:21.971Z,51.20
2019-05-12T09:49:44.559Z,51.30
2019-05-12T09:52:22.260Z,51.00
2019-05-12T09:54:49.397Z,51.30
2019-05-12T09:57:23.795Z,51.60
2019-05-12T09:59:59.461Z,51.90
2019-05-12T10:02:31.437Z,51.80
2019-05-12T10:05:05.501Z,52.10
2019-05-12T10:07:36.638Z,52.40
2019-05-12T10:10:09.820Z,52.50
2019-05-12T10:12:46.417Z,53.00
2019-05-12T10:15:18.704Z,53.00
2019-05-12T10:17:50.837Z,53.00
2019-05-12T10:20:29.126Z,52.80
2019-05-12T10:23:00.409Z,52.40
2019-05-12T10:25:33.675Z,52.20
2019-05-12T10:28:11.397Z,52.20
2019-05-12T10:30:47.164Z,52.60
2019-05-12T10:33:15.705Z,53.00
2019-05-12T10:35:46.745Z,53.20
2019-05-12T10:38:21.036Z,53.40
2019-05-12T10:40:55.187Z,53.70
2019-05-12T10:43:29.298Z,53.90
2019-05-12T10:46:01.303Z,54.20
2019-05-12T10:48:33.918Z,54.20
2019-05-12T10:51:06.211Z,54.30
2019-05-12T10:53:37.941Z,54.50
2019-05-12T10:56:09.948Z,54.50
2019-05-12T10:58:41.005Z,54.60
2019-05-12T11:01:13.451Z,54.90
2019-05-12T11:03:50.928Z,55.10
2019-05-12T11:06:20.636Z,55.90
2019-05-12T11:08:54.833Z,56.30
2019-05-12T11:11:27.053Z,56.30
2019-05-12T11:13:59.425Z,56.60
2019-05-12T11:16:31.998Z,56.90
2019-05-12T11:19:06.399Z,57.10
2019-05-12T11:21:37.070Z,57.40
2019-05-12T11:24:11.040Z,57.40
2019-05-12T11:26:43.247Z,58.10
2019-05-12T11:29:15.748Z,57.60
2019-05-12T11:31:47.579Z,57.70
2019-05-12T11:34:19.589Z,57.90
2019-05-12T11:36:54.382Z,57.80
2019-05-12T11:39:30.695Z,57.90
2019-05-12T11:42:03.742Z,58.00
2019-05-12T11:44:35.362Z,58.10
2019-05-12T11:47:06.640Z,58.40
2019-05-12T11:49:39.065Z,58.50
2019-05-12T11:52:16.777Z,58.80
2019-05-12T11:54:50.960Z,59.00
2019-05-12T11:57:20.183Z,59.10
2019-05-12T11:59:59.200Z,59.30
2019-05-12T12:02:30.280Z,59.40
2019-05-12T12:04:59.795Z,59.50
2019-05-12T12:07:33.252Z,59.50
2019-05-12T12:10:04.362Z,59.40
2019-05-12T12:12:39.666Z,59.50
2019-05-12T12:15:10.200Z,59.70
2019-05-12T12:17:44.011Z,59.80
2019-05-12T12:20:22.023Z,59.80
2019-05-12T12:22:50.682Z,60.00
2019-05-12T12:25:24.144Z,60.10
2019-05-12T12:27:56.661Z,60.40
2019-05-12T12:30:31.124Z,60.50
2019-05-12T12:33:04.777Z,60.60
2019-05-12T12:35:37.204Z,61.00
2019-05-12T12:38:11.212Z,61.10
2019-05-12T12:40:44.155Z,61.00
2019-05-12T12:43:18.601Z,61.10
2019-05-12T12:45:50.843Z,61.30
2019-05-12T12:48:25.559Z,61.60
2019-05-12T12:50:56.605Z,61.60
2019-05-12T12:53:30.645Z,61.80
2019-05-12T12:56:04.623Z,61.60
2019-05-12T12:58:38.243Z,62.00
2019-05-12T13:01:15.740Z,62.10
2019-05-12T13:03:45.553Z,62.10
2019-05-12T13:06:19.063Z,62.40
2019-05-12T13:08:53.946Z,62.40
2019-05-12T13:11:33.095Z,62.30
2019-05-12T13:13:58.024Z,62.40
2019-05-12T13:16:34.331Z,62.40
2019-05-12T13:19:12.127Z,62.50
2019-05-12T13:21:43.780Z,62.40
2019-05-12T13:24:15.273Z,62.50
2019-05-12T13:26:47.387Z,62.60
2019-05-12T13:29:19.336Z,62.60
2019-05-12T13:31:53.744Z,62.90
2019-05-12T13:34:28.924Z,62.90
2019-05-12T13:37:00.257Z,63.00
2019-05-12T13:39:34.132Z,62.80
2019-05-12T13:42:05.985Z,63.00
2019-05-12T13:44:41.005Z,63.00
2019-05-12T13:47:16.169Z,62.50
2019-05-12T13:49:48.440Z,62.90
2019-05-12T13:52:26.353Z,63.10
2019-05-12T13:54:54.991Z,63.30
2019-05-12T13:57:28.914Z,63.80
2019-05-12T14:00:06.836Z,63.40
2019-05-12T14:02:36.394Z,63.30
2019-05-12T14:05:11.484Z,63.60
2019-05-12T14:10:33.218Z,63.50
2019-05-12T14:13:04.567Z,63.50
2019-05-12T14:15:36.801Z,63.60
2019-05-12T14:18:10.498Z,63.60
2019-05-12T14:20:44.911Z,63.70
2019-05-12T14:23:14.559Z,63.80
2019-05-12T14:25:48.757Z,64.00
2019-05-12T14:28:24.121Z,64.00
2019-05-12T14:30:58.138Z,64.20
2019-05-12T14:33:37.522Z,64.20
2019-05-12T14:36:06.253Z,64.40
2019-05-12T14:38:37.464Z,64.80
2019-05-12T14:41:11.685Z,64.80
2019-05-12T14:43:47.685Z,65.10
2019-05-12T14:46:17.961Z,65.40
2019-05-12T14:48:50.561Z,65.60
2019-05-12T14:51:24.536Z,65.70
2019-05-12T14:53:56.958Z,65.30
2019-05-12T14:56:29.071Z,65.70
2019-05-12T14:59:03.528Z,65.90
2019-05-12T15:01:51.634Z,65.70
2019-05-12T15:04:13.280Z,65.90
2019-05-12T15:06:44.583Z,65.80
2019-05-12T15:09:20.442Z,67.00
2019-05-12T15:11:52.239Z,66.10
2019-05-12T15:14:32.459Z,66.20
2019-05-12T15:17:22.424Z,66.40
2019-05-12T15:19:54.154Z,66.60
2019-05-12T15:22:42.949Z,66.90
2019-05-12T15:25:20.391Z,67.20
2019-05-12T15:30:53.963Z,67.40
2019-05-12T15:33:44.100Z,67.70
2019-05-12T15:36:19.786Z,67.40
2019-05-12T15:38:58.867Z,67.60
2019-05-12T15:41:33.158Z,67.80
2019-05-12T15:44:14.600Z,68.10
2019-05-12T15:46:56.987Z,68.10
2019-05-12T15:49:36.770Z,68.20
2019-05-12T15:52:18.853Z,68.30
2019-05-12T15:54:59.103Z,68.50
2019-05-12T15:57:37.192Z,68.00
2019-05-12T16:00:17.260Z,68.00
